Latest Weather Observations for St Kilda Harbour RMYS

IDV60901

Issued at 1:21 am EST Monday 12 April 2021 (issued every 10 minutes, with the page automatically refreshed every 10 minutes)

About weather observations | Map of Melbourne area stations | Latest observations for Melbourne area | Other Formats
Station Details ID: 086220 Name: ST KILDA HARBOUR - RMYS Lat: -37.86 Lon: 144.96 Height: 6.4 m
Data from the previous 72 hours. | See also: Recent months at St Kilda Harbour RMYS
Date/Time
EST
Temp
°C
App
Temp
°C
Dew
Point
°C
Rel
Hum
%
Delta-T
°C
Wind Press
QNH
hPa
Press
MSL
hPa
Rain since
9am
mm
Dir  Spd
km/h
Gust
km/h
Spd
kts
Gust
kts
12/01:00am - - - - - WSW 32 43 17 23 - - -
12/12:30am - - - - - WSW 41 54 22 29 - - -
12/12:20am - - - - - WSW 35 57 19 31 - - -
12/12:15am - - - - - SSW 37 57 20 31 - - -
12/12:00am - - - - - SSW 43 50 23 27 - - -
 
Date/Time
EST
Temp
°C
App
Temp
°C
Dew
Point
°C
Rel
Hum
%
Delta-T
°C
Wind Press
QNH
hPa
Press
MSL
hPa
Rain since
9am
mm
Dir  Spd
km/h
Gust
km/h
Spd
kts
Gust
kts
11/11:30pm - - - - - SW 35 48 19 26 - - -
11/11:18pm - - - - - SW 37 48 20 26 - - -
11/11:00pm - - - - - WSW 35 46 19 25 - - -
11/10:57pm - - - - - SW 35 46 19 25 - - -
11/10:30pm - - - - - SW 33 54 18 29 - - -
11/10:28pm - - - - - WSW 28 54 15 29 - - -
11/10:00pm - - - - - WSW 39 50 21 27 - - -
11/09:30pm - - - - - WSW 41 48 22 26 - - -
11/09:18pm - - - - - SW 39 50 21 27 - - -
11/09:07pm - - - - - SW 37 50 20 27 - - -
11/09:00pm - - - - - WSW 33 41 18 22 - - -
11/08:30pm - - - - - WSW 39 48 21 26 - - -
11/08:00pm - - - - - SW 43 50 23 27 - - -
11/07:30pm - - - - - SW 35 43 19 23 - - -
11/07:00pm - - - - - SW 46 63 25 34 - - -
11/06:58pm - - - - - SW 44 63 24 34 - - -
11/06:30pm - - - - - SW 44 52 24 28 - - -
11/06:00pm - - - - - SSW 50 65 27 35 - - -
11/05:39pm - - - - - SW 39 57 21 31 - - -
11/05:30pm - - - - - SW 43 52 23 28 - - -
11/05:00pm - - - - - SW 50 67 27 36 - - -
11/04:35pm - - - - - SW 50 72 27 39 - - -
11/04:30pm - - - - - SW 52 67 28 36 - - -
11/04:08pm - - - - - SW 50 69 27 37 - - -
11/04:00pm - - - - - SW 50 63 27 34 - - -
11/03:42pm - - - - - SW 46 67 25 36 - - -
11/03:30pm - - - - - SW 44 56 24 30 - - -
11/03:06pm - - - - - SW 54 76 29 41 - - -
11/03:00pm - - - - - SW 54 67 29 36 - - -
11/02:37pm - - - - - SW 50 80 27 43 - - -
11/02:30pm - - - - - SW 52 63 28 34 - - -
11/02:00pm - - - - - SW 56 76 30 41 - - -
11/01:30pm - - - - - SW 56 78 30 42 - - -
11/01:23pm - - - - - SW 46 67 25 36 - - -
11/01:14pm - - - - - SW 50 61 27 33 - - -
11/01:01pm - - - - - SW 65 83 35 45 - - -
11/01:00pm - - - - - SW 63 82 34 44 - - -
11/12:32pm - - - - - SW 52 70 28 38 - - -
11/12:30pm - - - - - SW 56 70 30 38 - - -
11/12:23pm - - - - - SW 56 70 30 38 - - -
11/12:04pm - - - - - SSW 61 80 33 43 - - -
11/12:00pm - - - - - SSW 63 80 34 43 - - -
11/11:58am - - - - - SW 59 78 32 42 - - -
11/11:52am - - - - - SW 50 70 27 38 - - -
11/11:30am - - - - - SW 46 59 25 32 - - -
11/11:11am - - - - - SW 46 67 25 36 - - -
11/11:00am - - - - - WSW 32 46 17 25 - - -
11/10:30am - - - - - WSW 44 52 24 28 - - -
11/10:00am - - - - - WSW 44 52 24 28 - - -
11/09:32am - - - - - WSW 48 69 26 37 - - -
11/09:30am - - - - - WSW 44 56 24 30 - - -
11/09:01am - - - - - W 32 50 17 27 - - -
11/09:00am - - - - - W 33 50 18 27 - - -
11/08:30am - - - - - WSW 46 59 25 32 - - -
11/08:16am - - - - - W 37 56 20 30 - - -
11/08:00am - - - - - WSW 46 59 25 32 - - -
11/07:53am - - - - - WSW 37 50 20 27 - - -
11/07:46am - - - - - W 30 50 16 27 - - -
11/07:30am - - - - - W 32 43 17 23 - - -
11/07:00am - - - - - W 41 50 22 27 - - -
11/06:30am - - - - - W 39 48 21 26 - - -
11/06:00am - - - - - W 37 50 20 27 - - -
11/05:30am - - - - - W 41 50 22 27 - - -
11/05:00am - - - - - W 41 50 22 27 - - -
11/04:30am - - - - - W 43 52 23 28 - - -
11/04:00am - - - - - W 37 50 20 27 - - -
11/03:30am - - - - - W 33 43 18 23 - - -
11/03:00am - - - - - W 37 44 20 24 - - -
11/02:30am - - - - - W 41 50 22 27 - - -
11/02:00am - - - - - W 37 50 20 27 - - -
11/01:30am - - - - - W 39 46 21 25 - - -
11/01:00am - - - - - W 35 46 19 25 - - -
11/12:30am - - - - - W 37 50 20 27 - - -
11/12:00am - - - - - W 39 50 21 27 - - -
 
Date/Time
EST
Temp
°C
App
Temp
°C
Dew
Point
°C
Rel
Hum
%
Delta-T
°C
Wind Press
QNH
hPa
Press
MSL
hPa
Rain since
9am
mm
Dir  Spd
km/h
Gust
km/h
Spd
kts
Gust
kts
10/11:30pm - - - - - WNW 32 41 17 22 - - -
10/11:00pm - - - - - W 32 41 17 22 - - -
10/10:30pm - - - - - WNW 37 46 20 25 - - -
10/10:00pm - - - - - WNW 35 46 19 25 - - -
10/09:30pm - - - - - W 33 43 18 23 - - -
10/09:00pm - - - - - W 39 50 21 27 - - -
10/08:47pm - - - - - W 28 48 15 26 - - -
10/08:30pm - - - - - WNW 26 33 14 18 - - -
10/08:00pm - - - - - W 26 33 14 18 - - -
10/07:30pm - - - - - W 33 48 18 26 - - -
10/07:00pm - - - - - W 35 52 19 28 - - -
10/06:30pm - - - - - WSW 50 57 27 31 - - -
10/06:12pm - - - - - WSW 50 82 27 44 - - -
10/06:10pm - - - - - WSW 44 82 24 44 - - -
10/06:09pm - - - - - WSW 43 76 23 41 - - -
10/06:00pm - - - - - W 35 46 19 25 - - -
10/05:30pm - - - - - WSW 44 61 24 33 - - -
10/05:00pm - - - - - WSW 54 65 29 35 - - -
10/04:30pm - - - - - WSW 50 61 27 33 - - -
10/04:08pm - - - - - WSW 56 76 30 41 - - -
10/04:00pm - - - - - WSW 52 61 28 33 - - -
10/03:30pm - - - - - WSW 48 61 26 33 - - -
10/03:00pm - - - - - WSW 59 76 32 41 - - -
10/02:40pm - - - - - WSW 57 80 31 43 - - -
10/02:37pm - - - - - WSW 50 69 27 37 - - -
10/02:30pm - - - - - WSW 44 59 24 32 - - -
10/02:00pm - - - - - SW 48 61 26 33 - - -
10/01:30pm - - - - - WSW 46 57 25 31 - - -
10/01:00pm - - - - - WSW 44 56 24 30 - - -
10/12:36pm - - - - - WSW 44 63 24 34 - - -
10/12:30pm - - - - - WSW 41 59 22 32 - - -
10/12:26pm - - - - - WSW 35 57 19 31 - - -
10/12:00pm - - - - - WSW 41 56 22 30 - - -
10/11:48am - - - - - WSW 41 65 22 35 - - -
10/11:30am - - - - - WSW 32 39 17 21 - - -
10/11:00am - - - - - W 35 50 19 27 - - -
10/10:41am - - - - - W 32 57 17 31 - - -
10/10:30am - - - - - W 37 50 20 27 - - -
10/10:27am - - - - - W 35 50 19 27 - - -
10/10:00am - - - - - WNW 28 39 15 21 - - -
10/09:30am - - - - - WNW 28 39 15 21 - - -
10/09:00am - - - - - WNW 32 39 17 21 - - -
10/08:30am - - - - - WNW 28 39 15 21 - - -
10/08:00am - - - - - WNW 30 35 16 19 - - -
10/07:30am - - - - - NW 24 32 13 17 - - -
10/07:00am - - - - - NW 24 30 13 16 - - -
10/06:30am - - - - - NW 24 33 13 18 - - -
10/06:00am - - - - - WNW 22 30 12 16 - - -
10/05:30am - - - - - WNW 22 32 12 17 - - -
10/05:00am - - - - - W 22 30 12 16 - - -
10/04:30am - - - - - WNW 22 28 12 15 - - -
10/04:00am - - - - - WNW 24 28 13 15 - - -
10/03:30am - - - - - WNW 22 28 12 15 - - -
10/03:00am - - - - - W 22 30 12 16 - - -
10/02:30am - - - - - W 24 28 13 15 - - -
10/02:00am - - - - - W 24 32 13 17 - - -
10/01:30am - - - - - W 19 24 10 13 - - -
10/01:00am - - - - - W 24 30 13 16 - - -
10/12:30am - - - - - W 15 19 8 10 - - -
10/12:00am - - - - - W 22 26 12 14 - - -
 
Date/Time
EST
Temp
°C
App
Temp
°C
Dew
Point
°C
Rel
Hum
%
Delta-T
°C
Wind Press
QNH
hPa
Press
MSL
hPa
Rain since
9am
mm
Dir  Spd
km/h
Gust
km/h
Spd
kts
Gust
kts
09/11:30pm - - - - - W 22 28 12 15 - - -
09/11:00pm - - - - - W 19 22 10 12 - - -
09/10:30pm - - - - - W 19 22 10 12 - - -
09/10:00pm - - - - - W 19 22 10 12 - - -
09/09:30pm - - - - - WSW 20 26 11 14 - - -
09/09:00pm - - - - - SW 17 22 9 12 - - -
09/08:30pm - - - - - SSW 20 28 11 15 - - -
09/08:00pm - - - - - SSW 19 22 10 12 - - -
09/07:30pm - - - - - SSW 20 28 11 15 - - -
09/07:00pm - - - - - SSW 19 26 10 14 - - -
09/06:30pm - - - - - SSW 22 28 12 15 - - -
09/06:00pm - - - - - S 24 32 13 17 - - -
09/05:30pm - - - - - S 26 35 14 19 - - -
09/05:00pm - - - - - S 26 32 14 17 - - -
09/04:30pm - - - - - S 26 35 14 19 - - -
09/04:00pm - - - - - S 22 30 12 16 - - -
09/03:30pm - - - - - SSW 26 32 14 17 - - -
09/03:00pm - - - - - SSW 28 35 15 19 - - -
09/02:30pm - - - - - SW 32 43 17 23 - - -
09/02:00pm - - - - - SSW 35 43 19 23 - - -
09/01:30pm - - - - - SSW 30 44 16 24 - - -
09/01:00pm - - - - - SSW 32 41 17 22 - - -
09/12:30pm - - - - - SSW 28 35 15 19 - - -
09/12:00pm - - - - - SSW 30 37 16 20 - - -
09/11:30am - - - - - SW 41 50 22 27 - - -
09/11:00am - - - - - SW 41 48 22 26 - - -
09/10:30am - - - - - SW 30 39 16 21 - - -
09/10:00am - - - - - WSW 26 32 14 17 - - -
09/09:30am - - - - - WSW 26 33 14 18 - - -
09/09:00am - - - - - WSW 32 41 17 22 - - -
09/08:30am - - - - - WSW 28 33 15 18 - - -
09/08:00am - - - - - WSW 32 39 17 21 - - -
09/07:30am - - - - - WSW 33 39 18 21 - - -
09/07:00am - - - - - W 37 43 20 23 - - -
09/06:30am - - - - - WSW 37 44 20 24 - - -
09/06:00am - - - - - WSW 39 44 21 24 - - -
09/05:30am - - - - - WSW 35 43 19 23 - - -
09/05:27am - - - - - WSW 35 43 19 23 - - -
09/05:00am - - - - - SW 37 46 20 25 - - -
09/04:30am - - - - - SW 44 52 24 28 - - -
09/04:00am - - - - - SW 44 54 24 29 - - -
09/03:30am - - - - - SW 48 57 26 31 - - -
09/03:00am - - - - - SSW 39 46 21 25 - - -
09/02:51am - - - - - SW 28 43 15 23 - - -
09/02:30am - - - - - W 13 17 7 9 - - -
09/02:00am - - - - - W 17 22 9 12 - - -
09/01:30am - - - - - W 24 35 13 19 - - -

Latest Capital City Observations: Canberra | Sydney | Melbourne | Brisbane | Adelaide | Perth | Hobart | Darwin

Other formats

Comma delimited format used in spreadsheet applications
http://www.bom.gov.au/fwo/IDV60901/IDV60901.95864.axf

JavaScript Object Notation format (JSON) in row-major order
http://www.bom.gov.au/fwo/IDV60901/IDV60901.95864.json

Data quality

Most of these data are generated automatically and are frequently updated. Quality checks on data are not normally performed. It is possible for incorrect values to appear. Refer to information at About Latest Weather Observations and please check the disclaimer before using these data.